Airfield :
LOGIN :

Register | Disclaimer

   EN    FR    IT 

 










Legend :    VFR   Marginal VFR   IFR   Intensive IFR   Very Intensive IFR
Visi :
Ceiling :
>= 8 km
>= 3000ft
5 to 8 km
1000 to 3000 ft
1500m to 5 km
500 to 1000 ft
800 to 1500m
200 to 500 ft
< 800m
< 200 ft
Symbols :   Thunderstorms  Fog  Heavy snow  Heavy precipitations  Wind > 20 kt
SIGMETs :     Misc.  Thunderstorms  Icing  Turbulence  Mountain Waves  Volcanic Ashes






- Airport Elevation : 404 ft
- IATA code : ECN


LCEN - Ercan International

CURRENT METAR :
  • 071450Z 35013KT 9999 SCT025 31/21 Q1002 NOSIG RMK RWY11 01011KT

EXPIRED METARs :
  • 071420Z 34014KT 9999 SCT025 32/21 Q1002 NOSIG RMK RWY11 36012KT
  • 071350Z 34016KT 9999 SCT025 31/21 Q1002 NOSIG RMK RWY11 01012KT 300V030
  • 071320Z 34018KT 9999 SCT025 32/21 Q1002 NOSIG RMK RWY11 36015KT
  • 071250Z 15013KT 110V180 9999 SCT025 34/19 Q1002 NOSIG RMK RWY11 05014KT
  • 071220Z 16014KT 120V190 9999 SCT025 35/19 Q1002 NOSIG RMK RWY11 14009KT 110V200

TAF TAF LCEN
Valid from the 07 at 12:00 until the 08 at 12:00 UTC


071040Z 0712/0812 16015KT 9999 FEW025
PROB30
TEMPO 0712/0715 BKN025
BECMG 0715/0718 29015KT



MET'MAP, your aeronautical weather chart ! - Copyright ORBIFLY December 2007 - Disclaimer

ORBIFLY MET'MAP TEAM :

Programming & Development : Alexandra Zaïnal
Original concept : Baudouin d'Aumeries
Technical & hardware support : Manuel Goepfert
Assistance : Marc-Olivier Méhu




SOURCES & CREDITS :

   NOAA